Time;durP1;ratioP1;P1;durP2;ratioP2;P2;SDS_P1;SDS_P2;PMS_P1;PMS_P2;Temp;Humidity;BMP_temperature;BMP_pressure;BME280_temperature;BME280_humidity;BME280_pressure;Samples;Min_cycle;Max_cycle;Signal;HPM_P1;HPM_P2
2023/03/17 00:00:43;;;;;;;5.30;2.90;;;;;;;8.32;31.38;100413.03;4419122;32;33655;-64
2023/03/17 00:03:31;;;;;;;3.37;2.55;;;;;;;8.12;31.97;100409.66;4421725;32;35068;-64
2023/03/17 00:05:59;;;;;;;2.22;1.98;;;;;;;7.84;32.12;100412.06;4405777;32;33732;-60
2023/03/17 00:08:29;;;;;;;5.15;3.15;;;;;;;8.00;32.48;100423.63;4419784;32;34247;-61
2023/03/17 00:10:56;;;;;;;2.87;2.20;;;;;;;8.10;31.90;100411.53;4405520;32;33401;-63
2023/03/17 00:13:25;;;;;;;2.65;1.70;;;;;;;8.25;31.61;100412.50;4415294;32;34150;-62
2023/03/17 00:15:55;;;;;;;6.47;2.70;;;;;;;8.22;32.31;100415.34;4421583;32;34936;-62
2023/03/17 00:18:23;;;;;;;3.65;2.80;;;;;;;8.05;32.90;100412.69;4420674;32;33824;-61
2023/03/17 00:20:51;;;;;;;2.67;1.90;;;;;;;8.17;31.69;100409.38;4414759;32;33379;-62
2023/03/17 00:23:21;;;;;;;5.62;2.47;;;;;;;8.01;33.49;100406.69;4417788;32;33267;-63
2023/03/17 00:25:50;;;;;;;3.75;2.10;;;;;;;7.70;34.17;100412.75;4404233;32;34923;-62
2023/03/17 00:28:19;;;;;;;6.22;2.95;;;;;;;7.79;34.30;100403.44;4410214;32;32623;-60
2023/03/17 00:30:54;;;;;;;2.55;1.62;;;;;;;8.12;32.31;100398.97;4417044;32;32971;-61
2023/03/17 00:33:25;;;;;;;2.45;1.75;;;;;;;8.29;31.48;100400.72;4403072;32;33454;-61
2023/03/17 00:35:54;;;;;;;3.00;2.03;;;;;;;8.30;31.63;100401.56;4417384;32;35243;-60
2023/03/17 00:38:23;;;;;;;4.82;2.83;;;;;;;8.36;31.71;100406.56;4405146;32;33885;-61
2023/03/17 00:40:50;;;;;;;2.78;2.58;;;;;;;8.26;32.07;100400.03;4415245;32;32208;-63
2023/03/17 00:43:21;;;;;;;2.75;1.37;;;;;;;8.21;32.59;100402.94;4413262;32;33690;-63
2023/03/17 00:45:49;;;;;;;3.03;2.05;;;;;;;8.31;31.37;100400.63;4414459;32;33770;-60
2023/03/17 00:48:20;;;;;;;2.87;2.08;;;;;;;8.22;31.85;100394.00;4402261;32;34027;-64
2023/03/17 00:50:49;;;;;;;3.90;1.85;;;;;;;8.02;32.62;100392.41;4418648;32;33177;-61
2023/03/17 00:53:20;;;;;;;4.18;1.95;;;;;;;7.99;31.89;100391.69;4417664;32;32598;-64
2023/03/17 00:55:48;;;;;;;3.87;2.42;;;;;;;7.98;32.42;100376.66;4417909;32;34352;-61
2023/03/17 00:58:27;;;;;;;2.83;2.53;;;;;;;8.11;31.83;100378.56;4402861;32;33768;-61
2023/03/17 01:00:55;;;;;;;3.35;1.52;;;;;;;8.10;33.05;100384.00;4422130;32;33295;-64
2023/03/17 01:03:24;;;;;;;4.37;2.50;;;;;;;8.20;31.88;100385.22;4422371;32;33907;-63
2023/03/17 01:05:53;;;;;;;5.47;2.20;;;;;;;8.14;31.97;100391.75;4418990;32;35809;-64
2023/03/17 01:08:21;;;;;;;7.68;3.53;;;;;;;7.85;33.09;100387.97;4423331;32;35275;-64
2023/03/17 01:10:49;;;;;;;2.50;1.48;;;;;;;7.90;32.75;100390.41;4421899;32;31963;-64
2023/03/17 01:13:18;;;;;;;2.90;2.05;;;;;;;8.10;32.64;100386.66;4423787;32;34105;-63
2023/03/17 01:15:47;;;;;;;2.83;1.87;;;;;;;8.17;31.67;100386.25;4421320;32;34057;-64
2023/03/17 01:18:16;;;;;;;2.75;2.55;;;;;;;8.02;32.09;100389.72;4421223;32;33735;-64
2023/03/17 01:20:44;;;;;;;1.30;1.17;;;;;;;7.90;32.11;100388.59;4421447;32;32739;-64
2023/03/17 01:23:12;;;;;;;4.93;2.15;;;;;;;7.88;32.12;100390.47;4423495;32;35176;-65
2023/03/17 01:25:41;;;;;;;2.33;1.70;;;;;;;7.70;33.43;100397.66;4422185;32;34951;-64
2023/03/17 01:28:12;;;;;;;1.70;1.33;;;;;;;7.73;33.04;100391.28;4419240;32;32788;-64
2023/03/17 01:30:40;;;;;;;3.00;2.08;;;;;;;7.80;33.32;100391.81;4418315;32;33380;-63
2023/03/17 01:33:09;;;;;;;4.15;2.83;;;;;;;7.95;32.24;100393.69;4423442;32;33910;-62
2023/03/17 01:35:37;;;;;;;6.60;1.67;;;;;;;7.84;33.06;100394.25;4422936;32;33814;-62
2023/03/17 01:38:05;;;;;;;2.47;1.62;;;;;;;7.71;32.76;100395.84;4422292;32;33831;-63
2023/03/17 01:40:41;;;;;;;1.85;1.42;;;;;;;7.67;32.94;100394.28;4419062;32;32354;-63
2023/03/17 01:43:09;;;;;;;2.95;1.75;;;;;;;7.59;32.98;100385.84;4417487;32;35085;-63
2023/03/17 01:46:14;;;;;;;2.40;1.90;;;;;;;7.53;32.69;100388.81;4416995;32;33810;-64
2023/03/17 01:49:20;;;;;;;1.70;1.20;;;;;;;7.58;32.47;100398.31;4421557;32;33911;-63
2023/03/17 01:52:08;;;;;;;2.40;1.55;;;;;;;7.38;33.54;100396.66;4423291;32;33283;-61
2023/03/17 01:55:01;;;;;;;2.95;1.77;;;;;;;7.25;33.34;100395.53;4421802;32;34713;-62
2023/03/17 01:57:33;;;;;;;10.75;3.22;;;;;;;6.97;34.27;100390.75;4413463;32;33748;-63
2023/03/17 02:00:05;;;;;;;3.05;2.25;;;;;;;6.77;34.00;100370.44;4406902;32;33643;-62
2023/03/17 02:02:42;;;;;;;1.75;1.65;;;;;;;6.54;34.36;100374.22;4420354;32;34408;-65
2023/03/17 02:05:14;;;;;;;3.20;2.17;;;;;;;6.69;34.12;100365.50;4422011;32;34721;-64
2023/03/17 02:07:42;;;;;;;6.18;3.08;;;;;;;6.94;33.71;100374.94;4406591;32;32665;-66
2023/03/17 02:10:11;;;;;;;3.28;2.22;;;;;;;7.07;34.05;100397.34;4416917;32;33667;-63
2023/03/17 02:12:41;;;;;;;20.58;2.08;;;;;;;7.00;34.87;100398.59;4403044;32;32865;-65
2023/03/17 02:15:09;;;;;;;1.62;1.17;;;;;;;7.26;34.13;100388.44;4402255;32;33775;-65
2023/03/17 02:17:38;;;;;;;1.60;1.50;;;;;;;7.36;33.87;100403.00;4418584;32;34022;-65
2023/03/17 02:20:14;;;;;;;5.50;3.22;;;;;;;7.35;34.02;100407.47;4417408;32;34034;-63
2023/03/17 02:22:43;;;;;;;1.70;1.60;;;;;;;7.51;33.06;100418.19;4420341;32;33205;-63
2023/03/17 02:25:13;;;;;;;1.30;1.20;;;;;;;7.51;32.66;100415.50;4418268;32;33981;-64
2023/03/17 02:27:45;;;;;;;1.58;1.35;;;;;;;7.21;33.36;100420.59;4418664;32;34958;-64
2023/03/17 02:30:15;;;;;;;3.22;2.15;;;;;;;6.95;33.95;100424.56;4417265;32;33898;-63
2023/03/17 02:32:43;;;;;;;3.40;1.95;;;;;;;6.92;33.67;100427.37;4420127;32;33870;-64
2023/03/17 02:35:11;;;;;;;3.10;2.85;;;;;;;6.72;34.16;100431.88;4417765;32;33621;-63
2023/03/17 02:37:42;;;;;;;1.27;1.00;;;;;;;6.68;34.12;100429.44;4418552;32;34123;-63
2023/03/17 02:40:10;;;;;;;1.90;1.25;;;;;;;6.72;33.67;100431.00;4417143;32;34172;-64
2023/03/17 02:42:40;;;;;;;1.10;1.00;;;;;;;6.71;33.92;100435.47;4417106;32;34521;-63
2023/03/17 02:45:10;;;;;;;1.50;1.40;;;;;;;6.67;33.79;100425.88;4419833;32;33226;-65
2023/03/17 02:47:38;;;;;;;3.37;2.35;;;;;;;6.53;33.84;100431.88;4419910;32;34180;-63
2023/03/17 02:50:07;;;;;;;13.23;1.58;;;;;;;6.25;34.97;100426.09;4418955;32;33890;-63
2023/03/17 02:52:35;;;;;;;2.17;1.12;;;;;;;6.29;34.64;100409.97;4413994;32;33496;-65
2023/03/17 02:55:02;;;;;;;4.85;2.87;;;;;;;6.18;34.54;100416.69;4418256;32;34034;-62
2023/03/17 02:57:30;;;;;;;1.75;1.40;;;;;;;6.26;34.40;100426.06;4419665;32;33912;-64
2023/03/17 02:59:58;;;;;;;2.28;2.00;;;;;;;6.24;34.63;100417.28;4416073;32;33835;-63
2023/03/17 03:02:25;;;;;;;1.87;1.73;;;;;;;6.40;34.57;100419.22;4413919;32;34008;-63
2023/03/17 03:04:53;;;;;;;3.33;2.60;;;;;;;6.49;34.37;100426.78;4418836;32;33874;-63
2023/03/17 03:07:21;;;;;;;0.90;0.90;;;;;;;6.27;34.47;100422.47;4419006;32;33876;-64
2023/03/17 03:09:49;;;;;;;2.62;2.30;;;;;;;6.43;34.02;100427.94;4418320;32;34949;-63
2023/03/17 03:12:16;;;;;;;4.00;2.50;;;;;;;6.40;34.09;100430.72;4416222;32;32156;-63
2023/03/17 03:14:44;;;;;;;2.53;2.05;;;;;;;6.41;34.18;100429.78;4419076;32;33860;-64
2023/03/17 03:17:12;;;;;;;2.22;1.77;;;;;;;6.35;34.28;100427.41;4418667;32;34011;-62
2023/03/17 03:19:39;;;;;;;2.62;1.62;;;;;;;6.20;34.59;100417.50;4417981;32;35055;-65
2023/03/17 03:22:08;;;;;;;1.58;1.17;;;;;;;5.99;35.11;100417.53;4417399;32;33311;-63
2023/03/17 03:24:36;;;;;;;1.75;1.33;;;;;;;5.98;34.80;100418.47;4416538;32;33674;-64
2023/03/17 03:27:04;;;;;;;2.47;1.90;;;;;;;6.04;34.61;100412.03;4419580;32;33948;-64
2023/03/17 03:29:31;;;;;;;1.23;1.15;;;;;;;6.17;34.58;100415.00;4418955;32;34197;-64
2023/03/17 03:31:59;;;;;;;1.67;1.52;;;;;;;6.11;34.72;100417.91;4418012;32;33110;-63
2023/03/17 03:34:27;;;;;;;1.55;1.30;;;;;;;6.32;34.26;100411.59;4416689;32;34986;-64
2023/03/17 03:36:55;;;;;;;4.80;2.83;;;;;;;6.36;34.06;100413.19;4419451;32;32950;-63
2023/03/17 03:39:22;;;;;;;1.98;1.83;;;;;;;6.33;34.21;100408.03;4418314;32;33671;-64
2023/03/17 03:41:49;;;;;;;1.35;1.25;;;;;;;6.20;34.59;100415.69;4415027;32;35287;-64
2023/03/17 03:44:17;;;;;;;1.60;1.50;;;;;;;6.26;34.31;100415.41;4419769;32;35088;-64
2023/03/17 03:46:45;;;;;;;1.50;1.40;;;;;;;6.24;34.46;100413.75;4418470;32;32652;-64
2023/03/17 03:49:12;;;;;;;3.08;1.98;;;;;;;6.22;34.40;100412.97;4420087;32;34003;-63
2023/03/17 03:51:40;;;;;;;1.70;1.42;;;;;;;5.97;35.30;100422.06;4417423;32;33613;-62
2023/03/17 03:54:07;;;;;;;3.65;2.55;;;;;;;5.97;34.83;100418.53;4415779;32;35127;-64
2023/03/17 03:56:35;;;;;;;2.83;2.50;;;;;;;5.90;35.09;100417.03;4417776;32;34039;-65
2023/03/17 03:59:03;;;;;;;1.65;1.27;;;;;;;6.13;34.41;100402.75;4418208;32;35018;-64
2023/03/17 04:01:30;;;;;;;5.87;1.73;;;;;;;6.16;34.38;100411.44;4402269;32;33318;-64
2023/03/17 04:03:58;;;;;;;2.33;1.60;;;;;;;5.83;35.26;100405.84;4419629;32;33554;-63
2023/03/17 04:06:25;;;;;;;1.67;1.58;;;;;;;5.47;36.79;100410.97;4417488;32;33830;-63
2023/03/17 04:08:52;;;;;;;1.45;1.35;;;;;;;5.63;35.45;100412.03;4418897;32;33972;-63
2023/03/17 04:11:22;;;;;;;6.32;3.80;;;;;;;5.70;35.12;100402.84;4417966;32;33513;-64
2023/03/17 04:13:50;;;;;;;6.47;2.55;;;;;;;5.78;35.00;100400.75;4419371;32;35105;-64
2023/03/17 04:16:17;;;;;;;3.22;2.37;;;;;;;5.67;35.43;100405.66;4417393;32;34053;-63
2023/03/17 04:18:45;;;;;;;1.45;1.35;;;;;;;5.72;35.09;100408.97;4418058;32;34854;-65
2023/03/17 04:21:17;;;;;;;7.62;2.55;;;;;;;5.58;35.26;100400.72;4419473;32;34431;-64
2023/03/17 04:23:45;;;;;;;2.67;1.87;;;;;;;5.65;35.44;100398.66;4417505;32;35027;-65
2023/03/17 04:26:13;;;;;;;1.85;1.35;;;;;;;5.94;34.83;100406.25;4417349;32;35269;-64
2023/03/17 04:28:40;;;;;;;1.55;1.45;;;;;;;6.02;34.89;100411.22;4417703;32;34675;-62
2023/03/17 04:31:11;;;;;;;1.75;1.55;;;;;;;6.06;34.67;100407.47;4418416;32;31978;-64
2023/03/17 04:33:39;;;;;;;8.57;2.45;;;;;;;5.96;35.39;100404.38;4418101;32;33626;-64
2023/03/17 04:36:08;;;;;;;2.35;2.15;;;;;;;5.93;34.84;100401.84;4416959;32;34076;-64
2023/03/17 04:38:35;;;;;;;6.40;2.72;;;;;;;5.97;34.72;100400.81;4402470;32;32710;-64
2023/03/17 04:41:03;;;;;;;2.25;1.67;;;;;;;5.97;34.61;100414.09;4415574;32;33461;-64
2023/03/17 04:43:31;;;;;;;2.67;1.75;;;;;;;5.94;34.76;100416.00;4417943;32;34765;-64
2023/03/17 04:45:58;;;;;;;2.33;2.12;;;;;;;5.88;34.81;100416.28;4416352;32;33902;-65
2023/03/17 04:48:26;;;;;;;2.92;2.35;;;;;;;5.79;35.55;100415.75;4418207;32;34157;-63
2023/03/17 04:50:53;;;;;;;3.67;2.53;;;;;;;5.70;35.28;100408.16;4417451;32;33168;-62
2023/03/17 04:53:21;;;;;;;4.95;1.92;;;;;;;5.71;35.29;100417.84;4417927;32;33629;-63
2023/03/17 04:55:49;;;;;;;3.45;2.37;;;;;;;5.64;36.03;100420.84;4418243;32;32578;-63
2023/03/17 04:58:16;;;;;;;2.90;1.33;;;;;;;5.89;35.73;100432.12;4418169;32;33775;-61
2023/03/17 05:00:57;;;;;;;5.28;2.05;;;;;;;6.22;35.14;100426.25;4417915;32;33158;-64
2023/03/17 05:03:26;;;;;;;6.43;2.25;;;;;;;6.46;34.19;100426.94;4412790;32;33728;-62
2023/03/17 05:05:56;;;;;;;2.62;2.42;;;;;;;6.49;34.36;100426.78;4415930;32;34205;-64
2023/03/17 05:08:26;;;;;;;2.50;2.10;;;;;;;6.58;34.05;100421.03;4412474;32;32558;-64
2023/03/17 05:10:54;;;;;;;3.00;2.65;;;;;;;6.67;33.79;100425.03;4416076;32;33472;-61
2023/03/17 05:13:23;;;;;;;3.25;2.95;;;;;;;6.53;34.34;100429.22;4415423;32;33787;-63
2023/03/17 05:15:52;;;;;;;1.20;1.12;;;;;;;6.41;34.73;100428.91;4412059;32;35724;-62
2023/03/17 05:18:22;;;;;;;1.65;1.55;;;;;;;6.56;34.12;100433.53;4415915;32;33753;-63
2023/03/17 05:20:50;;;;;;;2.45;1.85;;;;;;;6.59;34.87;100432.53;4418893;32;33098;-61
2023/03/17 05:23:17;;;;;;;1.37;1.20;;;;;;;6.44;35.40;100440.28;4417596;32;35066;-63
2023/03/17 05:25:45;;;;;;;1.42;1.27;;;;;;;6.79;34.45;100428.91;4417283;32;33814;-62
2023/03/17 05:28:13;;;;;;;1.75;1.60;;;;;;;6.89;33.72;100425.72;4417690;32;32060;-61
2023/03/17 05:30:41;;;;;;;3.83;2.95;;;;;;;7.05;33.27;100435.62;4418320;32;33339;-61
2023/03/17 05:33:09;;;;;;;4.20;2.30;;;;;;;7.02;34.12;100430.44;4417447;32;34869;-61
2023/03/17 05:35:37;;;;;;;0.90;0.90;;;;;;;7.12;34.34;100432.56;4415928;32;34061;-65
2023/03/17 05:38:04;;;;;;;2.85;1.75;;;;;;;7.33;33.50;100432.47;4416445;32;32577;-62
2023/03/17 05:40:32;;;;;;;2.35;2.05;;;;;;;7.51;33.21;100439.50;4414032;32;33325;-60
2023/03/17 05:43:00;;;;;;;2.80;1.98;;;;;;;7.11;34.64;100444.16;4415015;32;32318;-62
2023/03/17 05:45:29;;;;;;;3.25;2.12;;;;;;;7.51;34.18;100435.97;4417044;32;35492;-61
2023/03/17 05:47:56;;;;;;;1.70;1.60;;;;;;;7.63;33.38;100427.34;4418877;32;33919;-62
2023/03/17 05:50:25;;;;;;;4.18;3.08;;;;;;;7.86;33.12;100429.66;4419517;32;32438;-61
2023/03/17 05:52:52;;;;;;;3.45;2.37;;;;;;;8.04;32.89;100427.00;4418889;32;33656;-63
2023/03/17 05:55:20;;;;;;;6.80;3.78;;;;;;;8.08;33.71;100424.06;4418135;32;35211;-64
2023/03/17 05:57:47;;;;;;;4.40;3.17;;;;;;;8.31;32.72;100419.28;4415312;32;34043;-61
2023/03/17 06:00:15;;;;;;;4.70;2.87;;;;;;;8.22;33.88;100430.44;4411583;32;33558;-61
2023/03/17 06:02:43;;;;;;;4.20;3.17;;;;;;;8.50;33.55;100432.50;4409006;32;33783;-64
2023/03/17 06:05:11;;;;;;;6.70;3.78;;;;;;;8.71;33.38;100436.66;4418681;32;34611;-62
2023/03/17 06:07:38;;;;;;;6.72;4.12;;;;;;;8.70;33.47;100436.75;4419108;32;33578;-61
2023/03/17 06:10:19;;;;;;;4.82;3.37;;;;;;;8.95;33.12;100426.41;4412830;32;34063;-61
2023/03/17 06:12:47;;;;;;;5.30;3.92;;;;;;;8.92;33.60;100425.72;4411260;32;34974;-63
2023/03/17 06:15:15;;;;;;;5.75;4.03;;;;;;;9.15;33.82;100424.38;4414168;32;35300;-61
2023/03/17 06:17:43;;;;;;;24.55;4.75;;;;;;;9.38;32.98;100428.41;4411327;32;33322;-62
2023/03/17 06:20:11;;;;;;;18.55;5.10;;;;;;;9.45;33.05;100433.28;4419081;32;34407;-64
2023/03/17 06:22:39;;;;;;;12.35;4.93;;;;;;;9.54;33.17;100437.25;4415968;32;33557;-63
2023/03/17 06:25:27;;;;;;;8.27;4.53;;;;;;;9.87;32.66;100436.16;4416653;32;34963;-65
2023/03/17 06:27:55;;;;;;;7.95;5.47;;;;;;;10.03;32.19;100437.78;4419332;32;34971;-62
2023/03/17 06:30:22;;;;;;;11.98;5.82;;;;;;;10.47;31.58;100438.69;4418922;32;33111;-63
2023/03/17 06:32:50;;;;;;;9.68;5.10;;;;;;;10.07;31.87;100453.66;4414330;32;35004;-62
2023/03/17 06:35:17;;;;;;;8.45;3.85;;;;;;;10.48;31.16;100453.78;4415947;32;33564;-63
2023/03/17 06:37:45;;;;;;;9.35;6.45;;;;;;;10.36;31.01;100446.53;4417502;32;33729;-64
2023/03/17 06:40:14;;;;;;;4.78;3.53;;;;;;;10.07;31.69;100448.31;4418986;32;33322;-61
2023/03/17 06:42:42;;;;;;;6.57;4.22;;;;;;;10.38;31.09;100450.81;4418432;32;34819;-61
2023/03/17 06:45:10;;;;;;;5.47;3.72;;;;;;;10.48;30.85;100451.97;4416334;32;34014;-62
2023/03/17 06:47:38;;;;;;;5.95;4.40;;;;;;;10.64;30.42;100456.34;4416547;32;33744;-62
2023/03/17 06:50:08;;;;;;;8.68;4.00;;;;;;;10.94;30.44;100456.19;4419783;32;35452;-62
2023/03/17 06:52:36;;;;;;;6.00;4.15;;;;;;;10.97;30.66;100455.97;4416670;32;33673;-62
2023/03/17 06:55:05;;;;;;;4.32;2.45;;;;;;;9.64;33.20;100456.25;4413230;32;33829;-64
2023/03/17 06:57:32;;;;;;;7.43;4.22;;;;;;;10.80;29.64;100462.44;4413748;32;32776;-61
2023/03/17 06:59:59;;;;;;;4.80;3.25;;;;;;;10.66;30.99;100460.66;4420171;32;33652;-63
2023/03/17 07:02:27;;;;;;;3.90;2.50;;;;;;;10.92;28.99;100461.66;4416749;32;34804;-63
2023/03/17 07:04:56;;;;;;;3.78;2.45;;;;;;;10.60;30.12;100461.03;4413683;32;34091;-65
2023/03/17 07:07:24;;;;;;;2.50;2.30;;;;;;;10.37;29.69;100459.81;4409666;32;33740;-62
2023/03/17 07:09:52;;;;;;;11.52;3.92;;;;;;;10.47;29.88;100471.66;4417903;32;34240;-64
2023/03/17 07:12:20;;;;;;;4.50;2.55;;;;;;;10.37;30.45;100473.19;4417996;32;33974;-63
2023/03/17 07:14:48;;;;;;;11.98;3.58;;;;;;;9.88;31.64;100478.81;4420267;32;34022;-63
2023/03/17 07:17:16;;;;;;;3.78;2.20;;;;;;;9.89;31.92;100482.38;4420381;32;32698;-63
2023/03/17 07:19:43;;;;;;;8.32;3.22;;;;;;;9.80;31.18;100478.44;4417069;32;32407;-63
2023/03/17 07:22:11;;;;;;;4.43;3.25;;;;;;;10.21;30.71;100483.09;4413825;32;35039;-63
2023/03/17 07:24:40;;;;;;;3.58;2.58;;;;;;;10.48;30.87;100485.91;4422429;32;35080;-62
2023/03/17 07:27:08;;;;;;;5.22;3.00;;;;;;;10.30;30.90;100479.00;4418062;32;33799;-63
2023/03/17 07:29:36;;;;;;;5.82;2.67;;;;;;;10.01;32.54;100486.97;4419889;32;33110;-63
2023/03/17 07:32:05;;;;;;;5.90;2.65;;;;;;;10.35;30.93;100482.28;4417271;32;33843;-63
2023/03/17 07:34:34;;;;;;;13.02;2.80;;;;;;;10.03;31.34;100480.56;4420215;32;33870;-63
2023/03/17 07:37:02;;;;;;;5.75;2.58;;;;;;;10.18;31.38;100480.63;4418755;32;34161;-63
2023/03/17 07:39:30;;;;;;;4.87;3.00;;;;;;;9.90;31.60;100486.78;4417694;32;32451;-62
2023/03/17 07:41:57;;;;;;;34.88;4.70;;;;;;;10.49;31.80;100493.81;4418849;32;33707;-62
2023/03/17 07:44:26;;;;;;;4.25;2.72;;;;;;;10.61;31.30;100486.00;4417582;32;32383;-63
2023/03/17 07:46:54;;;;;;;3.00;2.55;;;;;;;10.95;31.44;100490.91;4414073;32;31076;-63
2023/03/17 07:49:21;;;;;;;4.35;2.75;;;;;;;11.32;30.32;100491.19;4418364;32;31923;-62
2023/03/17 07:52:08;;;;;;;6.37;2.35;;;;;;;11.67;27.81;100490.66;4417962;32;34179;-64
2023/03/17 07:54:36;;;;;;;4.78;2.40;;;;;;;12.16;27.45;100498.06;4422028;32;36206;-63
2023/03/17 07:57:05;;;;;;;6.75;3.10;;;;;;;12.48;26.59;100495.78;4417816;32;33631;-61
2023/03/17 07:59:32;;;;;;;8.05;3.60;;;;;;;15.72;23.49;100484.22;4420613;32;34571;-63
2023/03/17 08:02:00;;;;;;;9.07;3.37;;;;;;;16.52;21.64;100484.47;4417652;32;35005;-64
2023/03/17 08:04:28;;;;;;;9.48;5.05;;;;;;;19.06;19.64;100476.16;4417124;32;33902;-62
2023/03/17 08:06:56;;;;;;;11.73;6.00;;;;;;;18.19;19.60;100481.06;4420575;32;35029;-62
2023/03/17 08:09:24;;;;;;;5.47;3.22;;;;;;;18.39;19.73;100471.84;4414548;32;33518;-64
2023/03/17 08:11:52;;;;;;;12.10;5.30;;;;;;;19.13;18.94;100472.84;4418779;32;34524;-63
2023/03/17 08:14:20;;;;;;;10.65;4.05;;;;;;;18.65;18.59;100471.19;4419279;32;33868;-65
2023/03/17 08:16:47;;;;;;;6.53;3.50;;;;;;;17.09;20.06;100475.88;4417161;32;33562;-63
2023/03/17 08:19:15;;;;;;;6.47;4.10;;;;;;;13.78;22.94;100479.16;4410488;32;33151;-62
2023/03/17 08:21:42;;;;;;;6.93;4.00;;;;;;;15.14;22.22;100466.50;4420682;32;33956;-64
2023/03/17 08:24:10;;;;;;;7.90;4.65;;;;;;;13.96;23.10;100473.22;4420436;32;34083;-62
2023/03/17 08:26:38;;;;;;;7.22;3.55;;;;;;;15.03;22.43;100480.00;4419831;32;35021;-64
2023/03/17 08:29:07;;;;;;;4.55;2.62;;;;;;;15.06;22.42;100478.91;4420111;32;34646;-64
2023/03/17 08:31:34;;;;;;;6.62;3.40;;;;;;;13.90;23.51;100472.81;4420391;32;34012;-63
2023/03/17 08:34:03;;;;;;;6.20;3.22;;;;;;;12.62;25.03;100481.41;4418086;32;33750;-64
2023/03/17 08:36:30;;;;;;;4.62;2.83;;;;;;;11.82;25.93;100472.69;4420428;32;34029;-65
2023/03/17 08:38:58;;;;;;;4.10;2.87;;;;;;;10.61;27.29;100478.81;4421041;32;33764;-62
2023/03/17 08:41:27;;;;;;;4.70;2.45;;;;;;;11.47;27.27;100472.38;4420878;32;33929;-63
2023/03/17 08:43:54;;;;;;;4.70;2.40;;;;;;;11.48;27.61;100474.09;4418407;32;35192;-63
2023/03/17 08:46:30;;;;;;;5.03;2.72;;;;;;;10.10;27.67;100480.22;4421652;32;33625;-63
2023/03/17 08:48:58;;;;;;;4.53;2.22;;;;;;;10.03;28.82;100482.41;4419820;32;34443;-63
2023/03/17 08:51:30;;;;;;;7.25;2.30;;;;;;;11.09;28.08;100479.31;4421486;32;33640;-63
2023/03/17 08:53:58;;;;;;;6.85;2.83;;;;;;;11.24;27.31;100473.91;4420650;32;33991;-63
2023/03/17 08:56:26;;;;;;;3.50;2.53;;;;;;;10.38;27.64;100477.59;4418983;32;33936;-63
2023/03/17 08:58:54;;;;;;;5.20;2.60;;;;;;;10.96;27.16;100476.56;4419994;32;32496;-63
2023/03/17 09:01:23;;;;;;;8.30;3.35;;;;;;;11.03;27.24;100481.53;4417084;32;33763;-64
2023/03/17 09:03:52;;;;;;;5.28;1.80;;;;;;;11.21;26.60;100488.37;4416459;32;34138;-62
2023/03/17 09:06:21;;;;;;;9.85;3.33;;;;;;;11.43;25.82;100472.59;4420581;32;33104;-62
2023/03/17 09:08:54;;;;;;;1.92;1.35;;;;;;;11.75;24.98;100480.28;4420594;32;33183;-64
2023/03/17 09:11:27;;;;;;;6.53;1.73;;;;;;;11.95;24.43;100473.59;4418249;32;33940;-64
2023/03/17 09:13:55;;;;;;;8.25;3.53;;;;;;;11.50;24.45;100481.06;4415510;32;34835;-64
2023/03/17 09:16:23;;;;;;;4.37;2.50;;;;;;;11.46;25.16;100481.37;4418548;32;34243;-63
2023/03/17 09:18:51;;;;;;;3.62;2.28;;;;;;;11.51;25.52;100479.25;4417331;32;34502;-64
2023/03/17 09:21:20;;;;;;;5.45;2.67;;;;;;;12.08;24.88;100469.09;4417427;32;34687;-65
2023/03/17 09:23:47;;;;;;;12.35;2.85;;;;;;;11.30;26.29;100462.75;4417626;32;34042;-62
2023/03/17 09:26:15;;;;;;;5.47;2.47;;;;;;;11.16;24.89;100469.03;4418116;32;35068;-64
2023/03/17 09:28:43;;;;;;;3.70;2.10;;;;;;;12.12;24.19;100456.31;4416393;32;33503;-65
2023/03/17 09:31:11;;;;;;;5.15;1.90;;;;;;;13.11;22.62;100456.34;4418915;32;32432;-63
2023/03/17 09:33:39;;;;;;;2.90;2.08;;;;;;;11.68;23.67;100462.00;4405983;32;35375;-64
2023/03/17 09:36:08;;;;;;;6.07;2.45;;;;;;;12.03;24.07;100465.84;4421170;32;34701;-63
2023/03/17 09:38:36;;;;;;;5.25;1.98;;;;;;;11.86;23.24;100458.13;4419202;32;33030;-64
2023/03/17 09:41:19;;;;;;;3.72;2.28;;;;;;;12.73;22.31;100459.12;4405512;32;34962;-62
2023/03/17 09:44:05;;;;;;;6.07;2.85;;;;;;;12.69;22.61;100455.81;4416779;32;34093;-63
2023/03/17 09:46:39;;;;;;;5.05;2.37;;;;;;;12.38;23.16;100454.47;4408408;32;34827;-63
2023/03/17 09:49:11;;;;;;;3.65;2.00;;;;;;;12.14;23.45;100446.34;4416977;32;33184;-64
2023/03/17 09:51:38;;;;;;;4.28;2.05;;;;;;;13.35;22.71;100450.13;4407624;32;32335;-62
2023/03/17 09:54:27;;;;;;;3.97;1.83;;;;;;;13.16;22.54;100448.81;4406463;32;32748;-63
2023/03/17 09:57:09;;;;;;;5.18;2.53;;;;;;;14.08;21.81;100441.78;4412496;32;33992;-63
2023/03/17 09:59:46;;;;;;;5.45;2.22;;;;;;;13.57;22.22;100441.28;4418242;32;34151;-62
2023/03/17 10:02:21;;;;;;;3.90;1.95;;;;;;;13.75;22.25;100443.44;4421285;32;33682;-64
2023/03/17 10:04:50;;;;;;;7.53;2.55;;;;;;;13.96;21.96;100440.03;4401880;32;33937;-63
2023/03/17 10:07:36;;;;;;;4.07;2.10;;;;;;;14.23;21.46;100437.03;4420554;32;33957;-65
2023/03/17 10:10:04;;;;;;;;;;;;;;;14.19;21.30;100424.81;4410767;32;34688;-64
2023/03/17 10:12:54;;;;;;;5.90;3.05;;;;;;;14.19;21.82;100433.75;4421031;32;34183;-63
2023/03/17 10:15:31;;;;;;;9.25;3.28;;;;;;;14.60;21.79;100428.72;4402466;32;33902;-64
2023/03/17 10:17:58;;;;;;;6.43;3.08;;;;;;;14.33;21.24;100435.31;4413855;32;33611;-63
2023/03/17 10:20:29;;;;;;;7.07;3.30;;;;;;;14.99;20.51;100421.94;4401316;32;33283;-70
2023/03/17 10:23:00;;;;;;;7.72;3.00;;;;;;;15.20;20.73;100418.44;4407792;32;33091;-64
2023/03/17 10:25:31;;;;;;;4.35;2.22;;;;;;;14.30;20.25;100423.94;4404674;32;33793;-65
2023/03/17 10:28:17;;;;;;;5.93;2.67;;;;;;;13.56;21.47;100418.06;4419461;32;34463;-65
2023/03/17 10:30:45;;;;;;;9.32;4.07;;;;;;;14.81;20.47;100418.91;4413936;32;33116;-65
2023/03/17 10:33:13;;;;;;;7.03;4.22;;;;;;;14.33;19.93;100407.53;4420574;32;33775;-63
2023/03/17 10:35:43;;;;;;;3.83;2.20;;;;;;;14.21;20.39;100402.16;4419056;32;33813;-65
2023/03/17 10:38:16;;;;;;;3.90;2.47;;;;;;;14.64;20.20;100393.34;4418913;32;34987;-64
2023/03/17 10:40:46;;;;;;;5.03;3.10;;;;;;;14.32;20.69;100400.47;4420167;32;33500;-64
2023/03/17 10:43:18;;;;;;;4.10;2.55;;;;;;;14.12;21.25;100402.87;4419100;32;33017;-65
2023/03/17 10:46:01;;;;;;;6.43;2.40;;;;;;;12.66;22.62;100407.69;4415870;32;34318;-65
2023/03/17 10:48:35;;;;;;;5.57;2.70;;;;;;;12.67;22.47;100406.72;4419180;32;34062;-64
2023/03/17 10:51:09;;;;;;;5.62;2.47;;;;;;;13.64;21.52;100397.69;4408402;32;34245;-66
2023/03/17 10:53:42;;;;;;;3.40;2.30;;;;;;;13.01;21.56;100397.03;4420885;32;34997;-66
2023/03/17 10:56:20;;;;;;;3.37;1.92;;;;;;;13.50;21.34;100396.03;4420407;32;35317;-66
2023/03/17 10:58:49;;;;;;;5.90;2.53;;;;;;;13.29;21.36;100395.00;4399534;32;33875;-63
2023/03/17 11:01:21;;;;;;;4.00;2.62;;;;;;;13.54;22.44;100387.75;4404303;32;33745;-64
2023/03/17 11:03:49;;;;;;;6.68;2.45;;;;;;;14.09;21.40;100380.72;4414705;32;33941;-64
2023/03/17 11:06:19;;;;;;;5.47;2.80;;;;;;;14.17;20.78;100383.69;4398932;32;34152;-65
2023/03/17 11:08:49;;;;;;;4.75;2.67;;;;;;;13.92;21.16;100374.00;4415116;32;33152;-64
2023/03/17 11:11:33;;;;;;;4.43;2.45;;;;;;;13.63;21.25;100373.59;4418817;32;32557;-63
2023/03/17 11:14:04;;;;;;;10.45;2.55;;;;;;;14.59;19.79;100368.63;4419279;32;33787;-63
2023/03/17 11:16:36;;;;;;;3.53;2.25;;;;;;;15.09;19.73;100363.59;4419258;32;34620;-66
2023/03/17 11:19:09;;;;;;;6.07;3.35;;;;;;;14.47;20.48;100352.56;4415364;32;34138;-65
2023/03/17 11:21:53;;;;;;;5.65;2.55;;;;;;;14.78;20.60;100346.41;4404848;32;34378;-64
2023/03/17 11:24:28;;;;;;;5.70;2.83;;;;;;;14.09;20.90;100352.00;4418492;32;33740;-64
2023/03/17 11:27:04;;;;;;;12.35;2.75;;;;;;;13.87;21.13;100354.69;4401096;32;34146;-63
2023/03/17 11:29:36;;;;;;;7.12;2.53;;;;;;;13.85;21.66;100353.94;4416885;32;33654;-65
2023/03/17 11:32:28;;;;;;;5.18;3.37;;;;;;;13.12;21.39;100361.28;4404674;32;33633;-65
2023/03/17 11:35:27;;;;;;;6.62;3.17;;;;;;;12.95;21.89;100359.03;4404290;32;33856;-64
2023/03/17 11:38:10;;;;;;;4.87;2.25;;;;;;;13.02;22.28;100360.28;4410774;32;34019;-63
2023/03/17 11:40:50;;;;;;;4.37;2.62;;;;;;;13.74;21.49;100354.78;4420545;32;34755;-63
2023/03/17 11:43:42;;;;;;;5.62;3.37;;;;;;;13.97;21.30;100331.44;4417955;32;33488;-64